Time;durP1;ratioP1;P1;durP2;ratioP2;P2;SDS_P1;SDS_P2;PMS_P1;PMS_P2;Temp;Humidity;BMP_temperature;BMP_pressure;BME280_temperature;BME280_humidity;BME280_pressure;Samples;Min_cycle;Max_cycle;Signal;HPM_P1;HPM_P2
2022/09/08 00:00:19;;;;;;;7.32;2.35;;;21.00;99.90;;;;;;5052826;28;20029;-67
2022/09/08 00:02:44;;;;;;;6.32;1.85;;;20.90;99.90;;;;;;5036610;28;20033;-67
2022/09/08 00:05:13;;;;;;;6.18;2.30;;;21.00;99.90;;;;;;5032547;28;20029;-67
2022/09/08 00:07:39;;;;;;;6.07;2.22;;;20.90;99.90;;;;;;5032865;28;20105;-66
2022/09/08 00:10:05;;;;;;;4.90;2.00;;;20.90;99.90;;;;;;5032546;28;20029;-67
2022/09/08 00:12:34;;;;;;;5.88;2.00;;;21.00;99.90;;;;;;5029831;28;20140;-67
2022/09/08 00:15:00;;;;;;;6.05;2.45;;;20.90;99.90;;;;;;5022151;28;20030;-67
2022/09/08 00:17:27;;;;;;;5.85;2.20;;;20.90;99.90;;;;;;5025705;28;20032;-66
2022/09/08 00:19:53;;;;;;;7.63;2.33;;;20.90;99.90;;;;;;5013036;28;20029;-67
2022/09/08 00:22:19;;;;;;;5.95;2.28;;;20.90;99.90;;;;;;5032461;28;20050;-66
2022/09/08 00:24:45;;;;;;;6.50;2.42;;;20.90;99.90;;;;;;5032269;28;20032;-66
2022/09/08 00:27:11;;;;;;;4.68;2.13;;;20.90;99.90;;;;;;5032175;28;20398;-66
2022/09/08 00:29:36;;;;;;;8.65;2.50;;;20.90;99.90;;;;;;5032192;28;20397;-66
2022/09/08 00:32:02;;;;;;;6.20;2.38;;;20.90;99.90;;;;;;5031719;28;20033;-66
2022/09/08 00:34:28;;;;;;;7.22;2.20;;;20.90;99.90;;;;;;5032079;28;20437;-67
2022/09/08 00:36:56;;;;;;;8.07;2.50;;;20.90;99.90;;;;;;5032258;28;20040;-66
2022/09/08 00:39:22;;;;;;;7.32;2.40;;;20.90;99.90;;;;;;5036988;28;20029;-66
2022/09/08 00:41:50;;;;;;;8.05;2.10;;;20.90;99.90;;;;;;5051832;28;20055;-67
2022/09/08 00:44:41;;;;;;;6.47;2.70;;;20.90;99.90;;;;;;5052083;28;20025;-67
2022/09/08 00:47:29;;;;;;;7.90;2.40;;;20.80;99.90;;;;;;5051944;28;20028;-66
2022/09/08 00:49:58;;;;;;;5.18;2.42;;;20.60;99.90;;;;;;5051862;28;20078;-66
2022/09/08 00:52:27;;;;;;;8.00;2.13;;;20.60;99.90;;;;;;5051787;28;20408;-66
2022/09/08 00:54:53;;;;;;;6.03;2.30;;;20.80;99.90;;;;;;5051963;28;20025;-66
2022/09/08 00:57:19;;;;;;;7.78;2.30;;;20.90;99.90;;;;;;5050902;28;20408;-66
2022/09/08 00:59:46;;;;;;;6.82;2.22;;;20.90;99.90;;;;;;5051326;28;20021;-66
2022/09/08 01:02:23;;;;;;;5.03;2.10;;;20.90;99.90;;;;;;5051606;28;20037;-66
2022/09/08 01:05:03;;;;;;;6.00;2.10;;;20.80;99.90;;;;;;5050726;28;20060;-66
2022/09/08 01:13:37;;;;;;;4.47;1.88;;;20.80;99.90;;;;;;5051501;28;20543;-65
2022/09/08 01:16:06;;;;;;;7.10;2.10;;;20.80;99.90;;;;;;5051625;28;20559;-67
2022/09/08 01:18:34;;;;;;;4.55;1.98;;;19.50;99.90;;;;;;5051434;28;20032;-65
2022/09/08 01:21:30;;;;;;;4.25;1.92;;;19.30;99.90;;;;;;5051518;28;20044;-65
2022/09/08 01:24:08;;;;;;;6.53;2.42;;;20.50;99.90;;;;;;5051624;28;20032;-66
2022/09/08 01:27:25;;;;;;;5.40;2.00;;;20.70;99.90;;;;;;5051442;28;20029;-65
2022/09/08 01:29:56;;;;;;;7.45;1.90;;;20.40;99.90;;;;;;5028741;28;20530;-65
2022/09/08 01:32:23;;;;;;;6.95;2.10;;;19.40;99.90;;;;;;5029286;28;20045;-66
2022/09/08 01:34:50;;;;;;;5.10;1.83;;;19.70;99.90;;;;;;5029448;28;20026;-65
2022/09/08 01:37:15;;;;;;;4.03;1.55;;;20.10;99.90;;;;;;5029246;28;20047;-65
2022/09/08 01:39:41;;;;;;;4.97;1.70;;;19.80;99.90;;;;;;5029141;28;20121;-66
2022/09/08 01:42:07;;;;;;;4.82;2.05;;;19.80;99.90;;;;;;5029268;28;20479;-66
2022/09/08 01:44:33;;;;;;;4.55;2.00;;;19.90;99.90;;;;;;5029314;28;20021;-65
2022/09/08 01:46:59;;;;;;;7.15;1.80;;;20.40;99.90;;;;;;5029113;28;20125;-66
2022/09/08 01:49:25;;;;;;;4.60;1.77;;;20.60;99.90;;;;;;5029295;28;20112;-66
2022/09/08 01:51:51;;;;;;;4.10;1.58;;;20.40;99.90;;;;;;5029190;28;20029;-66
2022/09/08 01:54:16;;;;;;;5.18;1.67;;;20.40;99.90;;;;;;5029029;28;20065;-66
2022/09/08 01:56:42;;;;;;;5.10;1.88;;;20.60;99.90;;;;;;5031786;28;20041;-65
2022/09/08 01:59:08;;;;;;;4.68;1.80;;;20.60;99.90;;;;;;5032228;28;20033;-66
2022/09/08 02:01:34;;;;;;;5.10;1.80;;;20.70;99.90;;;;;;5023797;28;20042;-66
2022/09/08 02:04:00;;;;;;;6.57;1.80;;;20.70;99.90;;;;;;5012871;28;20029;-66
2022/09/08 02:06:25;;;;;;;5.20;1.70;;;20.60;99.90;;;;;;5017142;28;20442;-66
2022/09/08 02:08:52;;;;;;;4.00;1.60;;;20.60;99.90;;;;;;5034792;28;20097;-67
2022/09/08 02:11:19;;;;;;;3.08;1.77;;;20.70;99.90;;;;;;5034404;28;20453;-66
2022/09/08 02:13:45;;;;;;;4.28;1.48;;;20.60;99.90;;;;;;5034873;28;20028;-66
2022/09/08 02:16:11;;;;;;;4.43;1.73;;;20.60;99.90;;;;;;5014826;28;20042;-66
2022/09/08 02:18:38;;;;;;;4.20;1.55;;;20.40;99.90;;;;;;5014785;28;20029;-66
2022/09/08 02:21:12;;;;;;;6.40;1.90;;;20.40;99.90;;;;;;5014569;28;20050;-66
2022/09/08 02:23:41;;;;;;;4.45;1.60;;;20.60;99.90;;;;;;5014693;28;20050;-66
2022/09/08 02:26:12;;;;;;;4.53;1.40;;;20.60;99.90;;;;;;5014455;28;20034;-66
2022/09/08 02:28:38;;;;;;;3.00;1.20;;;20.70;99.90;;;;;;5014792;28;20033;-66
2022/09/08 02:31:04;;;;;;;5.00;1.80;;;20.60;99.90;;;;;;5014786;28;20034;-66
2022/09/08 02:33:31;;;;;;;3.92;1.77;;;20.50;99.90;;;;;;5014559;28;20022;-65
2022/09/08 02:35:57;;;;;;;4.03;1.55;;;20.40;99.90;;;;;;5014766;28;20026;-65
2022/09/08 02:38:23;;;;;;;5.93;1.80;;;20.60;99.90;;;;;;5014556;28;20371;-65
2022/09/08 02:40:49;;;;;;;3.55;1.55;;;20.50;99.90;;;;;;5047937;28;20025;-65
2022/09/08 02:43:16;;;;;;;4.30;1.33;;;20.60;99.90;;;;;;5054120;28;20051;-66
2022/09/08 02:45:42;;;;;;;2.17;1.25;;;20.60;99.90;;;;;;5054010;28;20464;-65
2022/09/08 02:48:08;;;;;;;2.67;1.40;;;20.60;99.90;;;;;;5053100;28;20067;-65
2022/09/08 02:50:34;;;;;;;3.85;1.48;;;20.60;99.90;;;;;;5054074;28;20438;-65
2022/09/08 02:52:59;;;;;;;3.22;1.23;;;20.50;99.90;;;;;;5053910;28;20025;-65
2022/09/08 02:55:26;;;;;;;5.65;1.55;;;20.50;99.90;;;;;;5053490;28;20078;-66
2022/09/08 02:57:52;;;;;;;2.40;1.30;;;20.40;99.90;;;;;;5054166;28;20033;-66
2022/09/08 03:00:19;;;;;;;5.65;1.70;;;20.60;99.90;;;;;;5053742;28;20079;-66
2022/09/08 03:02:46;;;;;;;4.75;1.40;;;20.60;99.90;;;;;;5053585;28;20489;-66
2022/09/08 03:05:13;;;;;;;3.47;1.58;;;20.60;99.90;;;;;;5053662;28;20017;-66
2022/09/08 03:07:38;;;;;;;3.10;1.20;;;20.40;99.90;;;;;;5053438;28;20031;-65
2022/09/08 03:10:05;;;;;;;2.90;1.40;;;20.50;99.90;;;;;;5053242;28;20560;-66
2022/09/08 03:12:32;;;;;;;4.03;1.83;;;20.50;99.90;;;;;;5053986;28;20033;-66
2022/09/08 03:14:58;;;;;;;3.25;1.65;;;20.40;99.90;;;;;;5053241;28;20025;-65
2022/09/08 03:17:24;;;;;;;3.50;1.70;;;20.40;99.90;;;;;;5053796;28;20033;-66
2022/09/08 03:19:51;;;;;;;3.15;1.38;;;20.20;99.90;;;;;;5053335;28;20017;-65
2022/09/08 03:22:17;;;;;;;2.45;1.48;;;20.40;99.90;;;;;;5053151;28;20045;-66
2022/09/08 03:24:43;;;;;;;4.05;1.30;;;20.30;99.90;;;;;;5051691;28;20445;-65
2022/09/08 03:27:10;;;;;;;2.35;1.40;;;20.40;99.90;;;;;;5053078;28;20060;-65
2022/09/08 03:29:36;;;;;;;4.50;1.40;;;20.50;99.90;;;;;;5053421;28;20032;-65
2022/09/08 03:32:02;;;;;;;4.88;1.60;;;20.50;99.90;;;;;;5053227;28;20096;-65
2022/09/08 03:34:28;;;;;;;3.17;1.25;;;20.40;99.90;;;;;;5053015;28;20029;-66
2022/09/08 03:36:54;;;;;;;3.63;1.40;;;19.90;99.90;;;;;;5053008;28;20082;-65
2022/09/08 03:39:20;;;;;;;3.13;1.33;;;20.00;99.90;;;;;;5052312;28;20061;-65
2022/09/08 03:41:46;;;;;;;3.75;1.50;;;20.10;99.90;;;;;;5053330;28;20103;-66
2022/09/08 03:44:12;;;;;;;3.28;1.40;;;20.30;99.90;;;;;;5052704;28;20494;-65
2022/09/08 03:46:37;;;;;;;3.50;1.48;;;20.40;99.90;;;;;;5051938;28;20029;-66
2022/09/08 03:49:04;;;;;;;4.55;1.33;;;20.40;99.90;;;;;;5051014;28;20382;-66
2022/09/08 03:51:30;;;;;;;3.95;1.50;;;20.40;99.90;;;;;;5024440;28;20036;-66
2022/09/08 03:54:46;;;;;;;3.95;1.35;;;20.40;99.90;;;;;;5018506;28;20026;-66
2022/09/08 03:56:44;;;;;;;3.78;1.55;;;20.20;99.90;;;;;;5016270;28;20525;-66
2022/09/08 03:59:11;;;;;;;3.95;1.60;;;20.30;99.90;;;;;;5032835;28;20371;-66
2022/09/08 04:01:37;;;;;;;3.80;1.48;;;20.40;99.90;;;;;;5032967;28;20032;-66
2022/09/08 04:04:03;;;;;;;2.53;1.35;;;20.30;99.90;;;;;;5015690;28;20029;-66
2022/09/08 04:06:30;;;;;;;2.97;1.30;;;20.30;99.90;;;;;;5012854;28;20041;-66
2022/09/08 04:08:56;;;;;;;3.33;1.40;;;20.10;99.90;;;;;;5012193;28;20056;-66
2022/09/08 04:11:23;;;;;;;2.85;1.38;;;20.10;99.90;;;;;;5012889;28;20034;-66
2022/09/08 04:13:50;;;;;;;2.00;1.23;;;20.20;99.90;;;;;;5012768;28;20061;-66
2022/09/08 04:16:16;;;;;;;4.10;1.45;;;20.10;99.90;;;;;;5012982;28;20522;-66
2022/09/08 04:18:43;;;;;;;5.10;1.30;;;20.20;99.90;;;;;;5012177;28;20386;-66
2022/09/08 04:21:09;;;;;;;2.95;1.40;;;20.30;99.90;;;;;;5012369;28;20577;-66
2022/09/08 04:23:34;;;;;;;4.45;1.80;;;20.30;99.90;;;;;;5012576;28;20022;-66
2022/09/08 04:26:06;;;;;;;2.17;1.30;;;20.30;99.90;;;;;;5012880;28;20132;-66
2022/09/08 04:28:34;;;;;;;2.42;1.33;;;20.30;99.90;;;;;;5012800;28;20564;-66
2022/09/08 04:31:04;;;;;;;3.42;1.55;;;20.20;99.90;;;;;;5012493;28;20050;-66
2022/09/08 04:33:31;;;;;;;4.40;1.73;;;20.20;99.90;;;;;;5012518;28;20025;-66
2022/09/08 04:35:56;;;;;;;2.90;1.33;;;20.20;99.90;;;;;;5012345;28;20064;-66
2022/09/08 04:38:22;;;;;;;3.78;1.27;;;20.20;99.90;;;;;;5011975;28;20538;-66
2022/09/08 04:40:48;;;;;;;3.15;1.40;;;20.30;99.90;;;;;;5046061;28;20043;-66
2022/09/08 04:43:14;;;;;;;3.10;1.38;;;20.20;99.90;;;;;;5052160;28;20033;-66
2022/09/08 04:45:39;;;;;;;3.55;1.35;;;20.20;99.90;;;;;;5051822;28;20444;-65
2022/09/08 04:48:05;;;;;;;2.42;1.30;;;20.20;99.90;;;;;;5051902;28;20048;-66
2022/09/08 04:50:31;;;;;;;3.08;1.23;;;20.30;99.90;;;;;;5051530;28;20389;-66
2022/09/08 04:52:57;;;;;;;3.70;1.45;;;20.10;99.90;;;;;;5051687;28;20050;-66
2022/09/08 04:55:22;;;;;;;2.47;1.20;;;20.20;99.90;;;;;;5052254;28;20386;-66
2022/09/08 04:57:48;;;;;;;3.83;1.40;;;20.00;99.90;;;;;;5051789;28;20029;-66
2022/09/08 05:00:14;;;;;;;2.30;1.25;;;20.10;99.90;;;;;;5050506;28;20032;-66
2022/09/08 05:02:41;;;;;;;2.08;1.20;;;20.10;99.90;;;;;;5051876;28;20017;-66
2022/09/08 05:05:07;;;;;;;2.63;1.52;;;20.10;99.90;;;;;;5051583;28;20037;-65
2022/09/08 05:07:33;;;;;;;3.00;1.33;;;20.10;99.90;;;;;;5051329;28;20021;-66
2022/09/08 05:09:58;;;;;;;3.45;1.20;;;20.10;99.90;;;;;;5052183;28;20078;-66
2022/09/08 05:12:24;;;;;;;2.35;1.10;;;20.20;99.90;;;;;;5050462;28;20021;-66
2022/09/08 05:14:50;;;;;;;3.80;1.23;;;20.20;99.90;;;;;;5051767;28;20446;-66
2022/09/08 05:17:16;;;;;;;3.65;1.38;;;20.10;99.90;;;;;;5052077;28;20041;-65
2022/09/08 05:19:41;;;;;;;3.45;1.30;;;20.20;99.90;;;;;;5051535;28;20039;-66
2022/09/08 05:22:07;;;;;;;3.50;1.23;;;20.10;99.90;;;;;;5046633;28;20529;-66
2022/09/08 05:24:33;;;;;;;2.35;1.20;;;20.20;99.90;;;;;;5020904;28;20022;-66
2022/09/08 05:26:58;;;;;;;3.50;1.13;;;20.10;99.90;;;;;;5012314;28;20160;-66
2022/09/08 05:29:24;;;;;;;3.00;1.10;;;20.20;99.90;;;;;;5032035;28;20044;-66
2022/09/08 05:31:50;;;;;;;2.10;1.17;;;20.10;99.90;;;;;;5035129;28;20497;-66
2022/09/08 05:34:15;;;;;;;3.75;1.65;;;20.10;99.90;;;;;;5016361;28;20022;-66
2022/09/08 05:36:41;;;;;;;2.75;1.30;;;20.10;99.90;;;;;;5015632;28;20045;-65
2022/09/08 05:39:07;;;;;;;5.70;1.33;;;19.80;99.90;;;;;;5021456;28;20047;-65
2022/09/08 05:41:33;;;;;;;7.65;1.33;;;20.10;99.90;;;;;;5055293;28;20029;-66
2022/09/08 05:44:00;;;;;;;7.07;1.70;;;20.20;99.90;;;;;;5055299;28;20021;-66
2022/09/08 05:46:27;;;;;;;6.47;1.65;;;20.20;99.90;;;;;;5055244;28;20081;-65
2022/09/08 05:48:54;;;;;;;4.00;1.45;;;20.20;99.90;;;;;;5054519;28;20397;-65
2022/09/08 05:51:20;;;;;;;2.92;1.13;;;20.20;99.90;;;;;;5055432;28;20033;-66
2022/09/08 05:53:47;;;;;;;4.63;1.65;;;20.20;99.90;;;;;;5055019;28;20457;-65
2022/09/08 05:56:18;;;;;;;2.80;1.40;;;20.20;99.90;;;;;;5054822;28;20041;-65
2022/09/08 05:58:55;;;;;;;5.43;1.50;;;20.20;99.90;;;;;;5054977;28;20508;-65
2022/09/08 06:01:21;;;;;;;2.72;1.35;;;20.20;99.90;;;;;;5043680;28;20025;-64
2022/09/08 06:03:51;;;;;;;4.18;1.27;;;20.20;99.90;;;;;;5034346;28;20052;-64
2022/09/08 06:06:17;;;;;;;2.13;1.30;;;20.20;99.90;;;;;;5034970;28;20177;-65
2022/09/08 06:08:43;;;;;;;3.42;1.50;;;20.10;99.90;;;;;;5034266;28;20022;-63
2022/09/08 06:11:09;;;;;;;4.78;1.50;;;20.10;99.90;;;;;;5034132;28;20032;-64
2022/09/08 06:13:36;;;;;;;3.83;1.48;;;20.10;99.90;;;;;;5033298;28;20025;-64
2022/09/08 06:16:11;;;;;;;4.75;1.40;;;20.10;99.90;;;;;;5034247;28;20045;-64
2022/09/08 06:18:40;;;;;;;2.83;1.42;;;20.20;99.90;;;;;;5034071;28;20493;-64
2022/09/08 06:21:17;;;;;;;3.88;1.30;;;20.20;99.90;;;;;;5034463;28;20049;-64
2022/09/08 06:23:46;;;;;;;3.13;1.42;;;20.20;99.90;;;;;;5027921;28;20104;-63
2022/09/08 06:26:15;;;;;;;2.38;1.35;;;20.00;99.90;;;;;;5016797;28;20022;-62
2022/09/08 06:28:53;;;;;;;4.35;1.38;;;19.90;99.90;;;;;;5014602;28;20029;-64
2022/09/08 06:31:35;;;;;;;4.68;1.63;;;19.50;99.90;;;;;;5014425;28;20026;-64
2022/09/08 06:34:09;;;;;;;8.77;1.58;;;18.90;99.90;;;;;;5017456;28;20026;-62
2022/09/08 06:37:07;;;;;;;4.10;1.40;;;19.20;99.90;;;;;;5034225;28;20076;-62
2022/09/08 06:39:39;;;;;;;5.95;1.80;;;19.80;99.90;;;;;;5025229;28;20041;-62
2022/09/08 06:42:31;;;;;;;4.43;1.67;;;20.00;99.90;;;;;;5034142;28;20021;-63
2022/09/08 06:45:01;;;;;;;6.88;1.48;;;20.00;99.90;;;;;;5034158;28;20034;-62
2022/09/08 06:47:42;;;;;;;7.57;1.70;;;20.40;99.90;;;;;;5033744;28;20053;-65
2022/09/08 06:50:14;;;;;;;3.80;1.40;;;21.90;99.90;;;;;;5033950;28;20471;-63
2022/09/08 06:52:48;;;;;;;8.43;1.52;;;23.10;99.90;;;;;;5033724;28;20124;-62
2022/09/08 06:55:23;;;;;;;7.93;1.67;;;24.00;99.90;;;;;;5033661;28;20042;-64
2022/09/08 06:57:49;;;;;;;9.88;1.95;;;23.60;99.90;;;;;;5033795;28;20096;-65
2022/09/08 07:00:43;;;;;;;10.35;1.70;;;24.80;99.90;;;;;;5026233;28;20112;-64
2022/09/08 07:03:17;;;;;;;6.38;1.50;;;25.10;99.90;;;;;;5013028;28;20041;-64
2022/09/08 07:05:45;;;;;;;9.77;1.50;;;25.90;99.90;;;;;;5013699;28;20096;-63
2022/09/08 07:08:26;;;;;;;6.35;1.50;;;26.20;99.90;;;;;;5014064;28;20076;-64
2022/09/08 07:11:12;;;;;;;6.45;1.48;;;25.30;99.90;;;;;;5013423;28;20026;-64
2022/09/08 07:13:38;;;;;;;10.38;1.55;;;23.50;99.90;;;;;;5013321;28;20033;-63
2022/09/08 07:16:13;;;;;;;11.57;1.90;;;24.40;99.90;;;;;;5025803;28;20033;-64
2022/09/08 07:19:23;;;;;;;7.68;1.85;;;24.20;99.90;;;;;;5029950;28;20047;-64
2022/09/08 07:21:55;;;;;;;7.57;1.80;;;24.30;99.90;;;;;;5002323;28;20050;-64
2022/09/08 07:24:27;;;;;;;9.30;2.10;;;23.60;99.90;;;;;;5011277;28;20419;-64
2022/09/08 07:26:59;;;;;;;6.68;1.95;;;23.00;99.90;;;;;;5011172;28;20045;-64
2022/09/08 07:29:33;;;;;;;5.95;1.80;;;22.40;99.90;;;;;;5003854;28;20056;-64
2022/09/08 07:32:00;;;;;;;5.03;1.50;;;21.90;99.90;;;;;;4990991;28;20061;-63
2022/09/08 07:34:30;;;;;;;7.10;1.40;;;21.70;99.90;;;;;;4991881;28;20045;-64
2022/09/08 07:37:11;;;;;;;5.93;1.50;;;21.50;99.90;;;;;;5002241;28;20046;-64
2022/09/08 07:39:47;;;;;;;7.20;1.80;;;21.20;99.90;;;;;;5006678;28;20036;-64
2022/09/08 07:42:15;;;;;;;6.35;1.80;;;21.10;99.90;;;;;;5011194;28;20057;-64
2022/09/08 07:44:41;;;;;;;6.03;1.80;;;21.00;99.90;;;;;;5011307;28;20544;-65
2022/09/08 07:47:27;;;;;;;4.50;2.00;;;20.90;99.90;;;;;;5010519;28;20204;-65
2022/09/08 07:50:10;;;;;;;5.72;2.17;;;20.40;99.90;;;;;;5009007;28;20045;-65
2022/09/08 07:53:03;;;;;;;5.15;2.40;;;20.10;99.90;;;;;;5006552;28;20418;-66
2022/09/08 07:55:43;;;;;;;6.55;2.63;;;19.80;99.90;;;;;;5020555;28;20029;-65
2022/09/08 07:58:30;;;;;;;5.13;1.92;;;19.80;99.90;;;;;;5033040;28;20099;-65
2022/09/08 08:01:34;;;;;;;4.93;2.05;;;20.00;99.90;;;;;;5032018;28;20093;-65
2022/09/08 08:04:23;;;;;;;6.10;2.13;;;20.20;99.90;;;;;;5029688;28;20037;-64
2022/09/08 08:06:55;;;;;;;5.97;2.38;;;20.00;99.90;;;;;;5032428;28;20041;-64
2022/09/08 08:09:34;;;;;;;4.97;1.85;;;20.00;99.90;;;;;;5032493;28;20021;-64
2022/09/08 08:12:22;;;;;;;4.88;1.73;;;20.30;99.90;;;;;;5032582;28;20067;-64
2022/09/08 08:14:58;;;;;;;7.72;2.17;;;20.40;99.90;;;;;;5032173;28;20034;-64
2022/09/08 08:17:36;;;;;;;5.32;2.00;;;20.30;99.90;;;;;;5032071;28;20071;-64
2022/09/08 08:20:03;;;;;;;5.63;2.00;;;20.30;99.90;;;;;;5032041;28;20575;-64
2022/09/08 08:22:55;;;;;;;6.05;2.30;;;20.40;99.90;;;;;;5032237;28;20048;-64
2022/09/08 08:25:29;;;;;;;8.45;2.20;;;20.50;99.90;;;;;;5029744;28;20447;-64
2022/09/08 08:28:11;;;;;;;10.23;2.70;;;20.50;99.90;;;;;;5032040;28;20025;-64
2022/09/08 08:30:42;;;;;;;8.40;2.20;;;20.40;99.90;;;;;;5028086;28;20037;-64
2022/09/08 08:33:33;;;;;;;14.73;3.45;;;20.20;99.90;;;;;;5029978;28;20037;-65
2022/09/08 08:36:06;;;;;;;14.13;2.95;;;20.20;99.90;;;;;;5031117;28;20037;-64
2022/09/08 08:38:36;;;;;;;8.00;2.10;;;20.30;99.90;;;;;;5031043;28;20429;-63
2022/09/08 08:41:23;;;;;;;8.23;2.50;;;20.00;99.90;;;;;;5031679;28;20334;-64
2022/09/08 08:44:04;;;;;;;9.55;2.40;;;20.20;99.90;;;;;;5029181;28;20418;-64
2022/09/08 08:46:48;;;;;;;7.15;2.05;;;19.90;99.90;;;;;;5020307;28;20038;-64
2022/09/08 08:49:42;;;;;;;10.88;2.75;;;19.80;99.90;;;;;;5029782;28;20033;-64
2022/09/08 08:52:20;;;;;;;8.93;2.45;;;20.10;99.90;;;;;;5011266;28;20052;-64
2022/09/08 08:55:08;;;;;;;7.13;2.33;;;20.10;99.90;;;;;;5011770;28;20061;-64
2022/09/08 08:57:56;;;;;;;7.13;2.13;;;20.40;99.90;;;;;;5011505;28;20490;-64
2022/09/08 09:00:28;;;;;;;7.03;2.40;;;20.40;99.90;;;;;;5025287;28;20045;-64
2022/09/08 09:03:12;;;;;;;6.20;2.17;;;20.60;99.90;;;;;;5020677;28;20038;-64
2022/09/08 09:06:14;;;;;;;7.65;2.70;;;20.50;99.90;;;;;;5015150;28;20053;-63
2022/09/08 09:09:00;;;;;;;5.88;2.35;;;20.10;99.90;;;;;;4996784;28;20136;-64
2022/09/08 09:11:33;;;;;;;7.20;2.42;;;20.30;99.90;;;;;;5008871;28;20053;-64
2022/09/08 09:14:16;;;;;;;8.47;2.90;;;20.30;99.90;;;;;;5013711;28;20081;-64
2022/09/08 09:17:08;;;;;;;8.43;3.28;;;20.00;99.90;;;;;;5013647;28;20056;-64
2022/09/08 09:20:01;;;;;;;58.95;10.43;;;19.80;99.90;;;;;;5004041;28;20503;-64
2022/09/08 09:22:51;;;;;;;18.83;4.47;;;20.30;99.90;;;;;;5013047;28;20046;-63
2022/09/08 09:25:35;;;;;;;55.20;10.75;;;20.40;99.90;;;;;;5008362;28;20034;-63
2022/09/08 09:28:38;;;;;;;54.47;9.35;;;20.60;99.90;;;;;;5000269;28;20035;-63
2022/09/08 09:31:23;;;;;;;45.40;9.63;;;19.80;99.90;;;;;;5010252;28;20030;-63
2022/09/08 09:34:00;;;;;;;11.38;3.72;;;19.90;99.90;;;;;;5012369;28;20109;-66
2022/09/08 09:36:40;;;;;;;11.25;3.60;;;20.40;99.90;;;;;;5010615;28;20108;-68
2022/09/08 09:39:08;;;;;;;8.07;3.17;;;20.30;99.90;;;;;;5006838;28;20092;-67
2022/09/08 09:41:55;;;;;;;11.20;4.38;;;20.20;99.90;;;;;;5033749;28;20034;-68
2022/09/08 09:44:28;;;;;;;7.75;3.40;;;20.20;99.90;;;;;;5054816;28;20132;-67
2022/09/08 09:47:18;;;;;;;7.93;4.10;;;20.20;99.90;;;;;;5054685;28;20033;-68
2022/09/08 09:49:56;;;;;;;10.55;3.75;;;20.20;99.90;;;;;;5038287;28;20137;-67
2022/09/08 09:52:37;;;;;;;6.40;3.22;;;20.30;99.90;;;;;;5021353;28;20030;-68
2022/09/08 09:55:29;;;;;;;7.32;3.20;;;20.20;99.90;;;;;;5014691;28;20050;-67
2022/09/08 09:58:04;;;;;;;8.45;3.70;;;20.10;99.90;;;;;;5014752;28;20034;-67
2022/09/08 10:00:47;;;;;;;7.05;3.10;;;20.20;99.90;;;;;;5014813;28;20030;-67
2022/09/08 10:03:15;;;;;;;5.90;3.20;;;20.00;99.90;;;;;;5014975;28;20026;-67
2022/09/08 10:06:24;;;;;;;8.32;3.38;;;19.90;99.90;;;;;;5022373;28;20379;-67
2022/09/08 10:09:11;;;;;;;7.47;3.30;;;19.90;99.90;;;;;;5024974;28;20180;-68
2022/09/08 10:12:03;;;;;;;8.85;4.13;;;20.10;99.90;;;;;;5014646;28;20018;-67
2022/09/08 10:15:19;;;;;;;8.70;3.35;;;20.00;99.90;;;;;;5014602;28;20033;-67
2022/09/08 10:18:21;;;;;;;7.38;3.53;;;20.20;99.90;;;;;;5012966;28;20057;-66
2022/09/08 10:20:56;;;;;;;6.60;3.15;;;20.30;99.90;;;;;;5014407;28;20087;-66
2022/09/08 10:23:33;;;;;;;6.45;3.20;;;20.30;99.90;;;;;;5015225;28;20034;-66
2022/09/08 10:26:11;;;;;;;8.00;3.92;;;20.30;99.90;;;;;;5014335;28;20073;-66
2022/09/08 10:28:39;;;;;;;7.85;3.53;;;20.50;99.90;;;;;;5029405;28;20029;-66
2022/09/08 10:31:13;;;;;;;6.75;3.35;;;21.30;99.90;;;;;;5034126;28;20072;-66
2022/09/08 10:34:10;;;;;;;6.05;2.90;;;21.70;99.90;;;;;;5027508;28;20026;-67
2022/09/08 10:37:03;;;;;;;6.18;2.78;;;21.70;99.90;;;;;;5029433;28;20111;-66
2022/09/08 10:39:53;;;;;;;6.70;3.42;;;21.60;99.90;;;;;;5054641;28;20036;-65
2022/09/08 10:42:47;;;;;;;5.50;2.53;;;22.10;99.90;;;;;;5023003;28;20056;-66
2022/09/08 10:45:18;;;;;;;6.97;2.92;;;22.70;99.90;;;;;;5033794;28;20037;-66
2022/09/08 10:47:47;;;;;;;4.57;2.42;;;23.60;99.90;;;;;;5032992;28;20041;-66
2022/09/08 10:50:22;;;;;;;8.15;2.72;;;24.50;99.90;;;;;;5034994;28;20017;-66
2022/09/08 10:53:11;;;;;;;5.43;2.50;;;25.10;99.90;;;;;;5033864;28;20037;-66
2022/09/08 10:55:54;;;;;;;5.00;2.13;;;25.90;99.90;;;;;;5033211;28;20100;-65
2022/09/08 10:58:37;;;;;;;3.47;1.90;;;26.10;99.90;;;;;;5027142;28;20033;-66
2022/09/08 11:01:31;;;;;;;3.90;2.05;;;25.80;99.90;;;;;;5033738;28;20037;-66
2022/09/08 11:04:21;;;;;;;2.28;1.40;;;26.40;99.90;;;;;;5034256;28;20044;-66
2022/09/08 11:07:30;;;;;;;4.30;1.55;;;26.60;99.90;;;;;;5033567;28;20029;-65
2022/09/08 11:10:50;;;;;;;6.25;2.25;;;27.10;99.90;;;;;;5028414;28;20026;-66
2022/09/08 11:13:25;;;;;;;3.50;1.48;;;26.90;99.90;;;;;;5011859;28;20183;-65
2022/09/08 11:16:41;;;;;;;2.22;1.30;;;26.80;99.90;;;;;;5011351;28;20403;-66
2022/09/08 11:19:36;;;;;;;4.53;1.55;;;26.70;99.90;;;;;;4952928;29;20715;-65
2022/09/08 11:22:02;;;;;;;3.78;1.30;;;26.50;99.90;;;;;;4952814;28;20055;-65
2022/09/08 11:24:48;;;;;;;2.15;1.30;;;26.50;99.90;;;;;;4953033;28;20478;-65
2022/09/08 11:27:45;;;;;;;3.20;1.30;;;26.20;99.90;;;;;;4953059;28;20610;-65
2022/09/08 11:30:17;;;;;;;3.83;1.63;;;26.80;99.90;;;;;;4953060;28;20032;-66
2022/09/08 11:33:00;;;;;;;4.47;1.83;;;26.00;99.90;;;;;;4945145;29;20499;-66
2022/09/08 11:35:26;;;;;;;3.90;1.40;;;25.70;99.90;;;;;;4952992;29;20516;-66
2022/09/08 11:38:33;;;;;;;3.90;1.50;;;25.70;99.90;;;;;;4952201;28;20047;-66
2022/09/08 11:41:19;;;;;;;3.50;1.42;;;25.70;99.90;;;;;;4888122;29;20401;-67
2022/09/08 11:44:06;;;;;;;4.60;1.60;;;25.70;99.90;;;;;;4885907;29;20406;-67
2022/09/08 11:46:53;;;;;;;5.03;1.60;;;25.30;99.90;;;;;;4876290;29;20053;-67
2022/09/08 11:49:55;;;;;;;3.80;1.40;;;25.30;99.90;;;;;;4901835;28;20043;-67
2022/09/08 11:52:29;;;;;;;4.63;1.80;;;25.20;99.90;;;;;;4952371;29;20058;-67
2022/09/08 11:55:26;;;;;;;4.82;2.05;;;24.80;99.90;;;;;;4957016;28;20190;-67
2022/09/08 11:57:54;;;;;;;4.15;2.20;;;24.40;99.90;;;;;;4962502;28;20266;-67
2022/09/08 12:00:41;;;;;;;5.97;2.20;;;24.50;99.90;;;;;;4971754;28;20030;-68
2022/09/08 12:03:19;;;;;;;4.15;1.70;;;22.80;99.90;;;;;;4971579;28;20035;-67
2022/09/08 12:05:57;;;;;;;5.53;2.13;;;23.70;99.90;;;;;;4960068;28;20141;-68
2022/09/08 12:08:59;;;;;;;4.13;2.22;;;24.30;99.90;;;;;;4971061;28;20034;-67
2022/09/08 12:11:56;;;;;;;4.80;2.13;;;23.60;99.90;;;;;;4967581;28;20043;-68
2022/09/08 12:14:25;;;;;;;3.38;1.98;;;24.20;99.90;;;;;;4970926;28;20547;-68
2022/09/08 12:17:26;;;;;;;3.38;1.90;;;24.50;99.90;;;;;;4976966;28;20199;-67
2022/09/08 12:20:13;;;;;;;4.47;1.77;;;24.40;99.90;;;;;;5012140;28;20514;-68
2022/09/08 12:22:56;;;;;;;4.72;1.75;;;23.40;99.90;;;;;;5021314;28;20041;-68
2022/09/08 12:25:31;;;;;;;3.92;1.75;;;22.60;99.90;;;;;;5028018;28;20037;-68
2022/09/08 12:28:32;;;;;;;3.63;1.65;;;23.00;99.90;;;;;;5020795;28;20070;-68
2022/09/08 12:31:09;;;;;;;3.95;1.77;;;24.10;99.90;;;;;;5022979;28;20029;-67
2022/09/08 12:34:05;;;;;;;3.88;1.70;;;25.00;99.90;;;;;;5023379;28;20032;-68
2022/09/08 12:36:46;;;;;;;3.85;1.70;;;24.70;99.90;;;;;;5038425;28;20048;-68
2022/09/08 12:39:37;;;;;;;5.32;1.80;;;23.70;99.90;;;;;;5018680;28;20082;-69
2022/09/08 12:42:21;;;;;;;5.82;1.80;;;24.00;99.90;;;;;;5040317;28;20021;-69
2022/09/08 12:44:59;;;;;;;5.43;1.95;;;23.90;99.90;;;;;;5031941;28;20033;-68
2022/09/08 12:48:02;;;;;;;5.75;2.47;;;24.40;99.90;;;;;;5032024;28;20500;-68
2022/09/08 12:50:42;;;;;;;7.50;1.85;;;24.50;99.90;;;;;;5009331;28;20502;-69
2022/09/08 12:53:44;;;;;;;4.13;1.70;;;24.70;99.90;;;;;;5003770;28;20042;-69
2022/09/08 12:56:36;;;;;;;4.10;1.98;;;24.40;99.90;;;;;;5009617;28;20048;-69
2022/09/08 12:59:26;;;;;;;5.55;2.00;;;24.80;99.90;;;;;;4969483;28;20047;-68
2022/09/08 13:02:11;;;;;;;4.82;1.92;;;25.30;99.90;;;;;;4950651;28;20539;-68
2022/09/08 13:04:49;;;;;;;5.85;2.03;;;24.70;99.90;;;;;;4964188;28;20097;-68
2022/09/08 13:07:23;;;;;;;5.22;2.13;;;25.20;99.90;;;;;;4969557;28;20038;-68
2022/09/08 13:10:21;;;;;;;3.92;1.98;;;25.00;99.90;;;;;;4966315;28;20065;-67
2022/09/08 13:12:57;;;;;;;5.43;2.10;;;24.90;99.90;;;;;;4971524;28;20023;-66
2022/09/08 13:15:32;;;;;;;4.43;2.08;;;24.30;99.90;;;;;;4969171;28;20069;-66
2022/09/08 13:18:21;;;;;;;5.43;2.10;;;24.20;99.90;;;;;;4970580;28;20050;-66
2022/09/08 13:21:17;;;;;;;5.90;1.98;;;24.10;99.90;;;;;;4970201;28;20059;-66
2022/09/08 13:23:47;;;;;;;5.50;1.90;;;24.40;99.90;;;;;;4931914;29;20040;-66
2022/09/08 13:26:46;;;;;;;7.03;2.40;;;24.20;99.90;;;;;;4932605;29;20032;-66
2022/09/08 13:29:33;;;;;;;6.35;2.47;;;24.20;99.90;;;;;;4913552;29;20064;-66
2022/09/08 13:32:07;;;;;;;6.15;2.30;;;24.10;99.90;;;;;;4913461;29;20032;-67
2022/09/08 13:34:54;;;;;;;5.75;1.90;;;23.90;99.90;;;;;;4913028;29;20415;-67